Time;durP1;ratioP1;P1;durP2;ratioP2;P2;SDS_P1;SDS_P2;PMS_P1;PMS_P2;Temp;Humidity;BMP_temperature;BMP_pressure;BME280_temperature;BME280_humidity;BME280_pressure;Samples;Min_cycle;Max_cycle;Signal;HPM_P1;HPM_P2
2022/08/06 00:00:21;;;;;;;5.03;1.73;;;14.00;90.60;;;;;;4979380;28;20548;-77
2022/08/06 00:02:47;;;;;;;4.68;1.90;;;14.20;88.60;;;;;;5012370;28;20089;-76
2022/08/06 00:05:13;;;;;;;10.32;3.28;;;14.20;90.20;;;;;;4972362;28;20022;-77
2022/08/06 00:07:38;;;;;;;4.72;1.88;;;14.20;88.80;;;;;;4998083;28;20041;-77
2022/08/06 00:10:04;;;;;;;9.38;2.53;;;14.10;90.70;;;;;;4966695;28;20666;-77
2022/08/06 00:12:30;;;;;;;2.10;1.73;;;14.10;88.80;;;;;;5023419;28;20261;-77
2022/08/06 00:14:57;;;;;;;3.80;1.60;;;14.20;84.40;;;;;;5004128;28;20033;-76
2022/08/06 00:17:23;;;;;;;3.40;2.03;;;14.30;83.90;;;;;;5001385;28;20046;-76
2022/08/06 00:19:48;;;;;;;2.00;1.30;;;14.40;84.60;;;;;;5001707;28;20044;-77
2022/08/06 00:22:14;;;;;;;3.80;1.73;;;14.30;84.40;;;;;;4992118;28;20214;-77
2022/08/06 00:24:39;;;;;;;2.95;1.33;;;14.20;84.30;;;;;;4984151;28;20035;-77
2022/08/06 00:27:05;;;;;;;5.72;1.42;;;14.20;84.90;;;;;;4974637;28;20033;-77
2022/08/06 00:29:30;;;;;;;5.90;1.70;;;14.20;88.50;;;;;;5016726;28;20042;-77
2022/08/06 00:31:56;;;;;;;4.90;2.20;;;14.20;85.70;;;;;;4971163;28;20509;-77
2022/08/06 00:34:21;;;;;;;6.45;1.70;;;14.10;89.80;;;;;;4976876;28;20030;-76
2022/08/06 00:36:47;;;;;;;8.70;1.98;;;13.70;90.80;;;;;;4996823;28;20129;-77
2022/08/06 00:39:13;;;;;;;4.72;1.90;;;13.60;92.40;;;;;;4999440;28;20034;-77
2022/08/06 00:41:38;;;;;;;2.05;1.20;;;13.60;92.20;;;;;;4997652;28;20246;-77
2022/08/06 00:44:04;;;;;;;2.78;1.33;;;13.70;90.40;;;;;;4954975;28;20037;-76
2022/08/06 00:46:29;;;;;;;4.30;1.30;;;13.90;89.80;;;;;;4973312;28;20030;-77
2022/08/06 00:48:55;;;;;;;3.22;1.25;;;14.10;90.20;;;;;;4992208;28;20338;-76
2022/08/06 00:51:21;;;;;;;5.00;2.20;;;14.00;87.70;;;;;;4990020;28;20514;-77
2022/08/06 00:53:47;;;;;;;3.63;1.33;;;13.90;90.30;;;;;;4999589;28;20045;-76
2022/08/06 00:56:13;;;;;;;5.82;1.75;;;13.80;89.40;;;;;;4968898;28;20915;-77
2022/08/06 00:58:38;;;;;;;4.35;1.30;;;13.50;94.50;;;;;;4999523;28;20053;-76
2022/08/06 01:01:04;;;;;;;5.72;1.77;;;13.40;91.90;;;;;;4990909;28;20029;-76
2022/08/06 01:03:29;;;;;;;4.00;1.60;;;13.40;91.50;;;;;;4989364;28;20145;-76
2022/08/06 01:05:55;;;;;;;6.05;1.98;;;13.40;92.10;;;;;;5010544;28;20136;-76
2022/08/06 01:08:21;;;;;;;3.35;1.25;;;13.30;91.60;;;;;;4978087;28;20034;-77
2022/08/06 01:10:46;;;;;;;6.53;1.50;;;13.60;92.40;;;;;;4995279;28;20485;-76
2022/08/06 01:13:12;;;;;;;3.45;1.60;;;13.60;91.80;;;;;;4970002;28;20026;-76
2022/08/06 01:15:38;;;;;;;4.10;1.25;;;13.50;91.90;;;;;;4998438;28;20030;-76
2022/08/06 01:18:20;;;;;;;7.40;2.10;;;13.50;92.30;;;;;;4982330;28;20033;-76
2022/08/06 01:21:04;;;;;;;4.25;1.80;;;13.20;95.80;;;;;;4989260;28;20372;-76
2022/08/06 01:23:52;;;;;;;5.00;2.00;;;12.90;94.50;;;;;;5017056;28;20183;-77
2022/08/06 01:26:55;;;;;;;9.40;2.10;;;12.90;97.80;;;;;;5007824;28;20080;-76
2022/08/06 01:29:23;;;;;;;5.95;2.17;;;12.80;97.80;;;;;;5001621;28;20072;-76
2022/08/06 01:32:02;;;;;;;3.45;1.80;;;12.80;98.90;;;;;;4977517;28;20534;-76
2022/08/06 01:34:37;;;;;;;3.33;1.45;;;12.80;95.60;;;;;;4999443;28;20058;-76
2022/08/06 01:37:14;;;;;;;3.20;1.77;;;13.00;94.10;;;;;;5007807;28;20073;-76
2022/08/06 01:39:40;;;;;;;2.63;1.58;;;12.90;98.00;;;;;;5020049;28;20033;-76
2022/08/06 01:42:05;;;;;;;2.53;1.27;;;12.90;95.70;;;;;;4989594;28;20041;-76
2022/08/06 01:44:35;;;;;;;3.97;2.10;;;13.10;94.80;;;;;;4991609;28;20034;-76
2022/08/06 01:47:08;;;;;;;3.63;1.50;;;13.10;95.00;;;;;;4993506;28;20046;-76
2022/08/06 01:49:34;;;;;;;3.33;1.55;;;13.10;95.20;;;;;;4978100;28;20114;-76
2022/08/06 01:52:00;;;;;;;4.43;1.75;;;13.20;96.00;;;;;;4996209;28;20133;-76
2022/08/06 01:54:28;;;;;;;4.93;1.45;;;13.00;95.20;;;;;;5019720;28;20128;-76
2022/08/06 01:56:54;;;;;;;2.35;1.40;;;12.90;95.40;;;;;;5005490;28;20117;-77
2022/08/06 01:59:21;;;;;;;2.22;1.63;;;12.90;95.30;;;;;;4992186;28;20117;-76
2022/08/06 02:01:49;;;;;;;3.35;1.45;;;12.90;95.40;;;;;;5003900;28;20065;-76
2022/08/06 02:04:15;;;;;;;5.97;2.03;;;12.80;95.00;;;;;;4999701;28;20724;-76
2022/08/06 02:06:43;;;;;;;3.25;1.80;;;12.60;97.70;;;;;;4996681;28;20044;-76
2022/08/06 02:09:11;;;;;;;2.88;1.70;;;12.60;96.80;;;;;;4987045;28;20402;-76
2022/08/06 02:11:37;;;;;;;4.18;1.65;;;12.50;96.40;;;;;;5003486;28;20084;-76
2022/08/06 02:14:02;;;;;;;7.65;2.28;;;12.50;96.70;;;;;;5009693;28;20041;-76
2022/08/06 02:16:30;;;;;;;5.50;2.00;;;12.50;96.30;;;;;;5000480;28;20049;-76
2022/08/06 02:18:55;;;;;;;5.70;2.03;;;12.50;97.80;;;;;;4999875;28;20573;-77
2022/08/06 02:21:21;;;;;;;3.85;2.13;;;12.40;96.80;;;;;;4986736;28;20037;-76
2022/08/06 02:23:47;;;;;;;5.80;1.58;;;12.50;97.90;;;;;;4981187;28;20121;-76
2022/08/06 02:26:12;;;;;;;3.80;1.77;;;12.40;96.10;;;;;;4992299;28;20552;-76
2022/08/06 02:28:38;;;;;;;2.10;1.52;;;12.50;96.60;;;;;;4981230;28;20498;-76
2022/08/06 02:31:03;;;;;;;2.45;1.50;;;12.60;96.70;;;;;;4969462;28;20034;-76
2022/08/06 02:33:29;;;;;;;4.45;1.65;;;12.60;96.80;;;;;;5002220;28;20041;-76
2022/08/06 02:36:05;;;;;;;2.22;1.10;;;12.50;95.90;;;;;;5007892;28;20033;-76
2022/08/06 02:39:02;;;;;;;4.63;1.80;;;12.30;96.20;;;;;;4999710;28;21513;-76
2022/08/06 02:41:36;;;;;;;13.43;1.88;;;12.40;96.20;;;;;;4998584;28;20379;-76
2022/08/06 02:44:34;;;;;;;3.95;1.60;;;12.30;96.30;;;;;;4989846;28;20034;-76
2022/08/06 02:47:23;;;;;;;3.45;1.30;;;12.40;96.70;;;;;;5000916;28;20046;-76
2022/08/06 02:49:50;;;;;;;1.88;1.67;;;12.30;96.40;;;;;;4982626;28;20410;-76
2022/08/06 02:52:18;;;;;;;5.38;2.03;;;12.20;96.10;;;;;;4989132;28;20482;-75
2022/08/06 02:55:19;;;;;;;3.70;1.63;;;12.20;96.50;;;;;;4997367;28;20025;-76
2022/08/06 02:57:52;;;;;;;3.03;1.98;;;12.10;98.10;;;;;;4982775;28;20026;-75
2022/08/06 03:00:18;;;;;;;2.03;1.80;;;11.90;97.90;;;;;;4980979;28;20551;-76
2022/08/06 03:02:44;;;;;;;2.65;1.92;;;11.80;97.60;;;;;;5005765;28;20026;-76
2022/08/06 03:05:13;;;;;;;2.58;1.70;;;11.90;98.00;;;;;;5000311;28;20474;-76
2022/08/06 03:07:39;;;;;;;2.95;2.05;;;11.90;97.20;;;;;;5011288;28;20030;-75
2022/08/06 03:10:05;;;;;;;3.05;1.58;;;12.00;98.10;;;;;;4997885;28;20030;-76
2022/08/06 03:12:31;;;;;;;3.15;1.67;;;12.10;97.80;;;;;;4997637;28;20057;-76
2022/08/06 03:14:57;;;;;;;2.88;1.73;;;12.00;97.40;;;;;;5000199;28;20117;-75
2022/08/06 03:17:23;;;;;;;6.57;2.17;;;12.00;97.10;;;;;;5019855;28;20499;-76
2022/08/06 03:19:48;;;;;;;7.47;2.92;;;11.80;97.20;;;;;;5007142;28;20044;-76
2022/08/06 03:22:15;;;;;;;7.65;2.28;;;11.80;97.20;;;;;;4992419;28;20141;-76
2022/08/06 03:24:41;;;;;;;4.95;1.73;;;11.70;97.10;;;;;;4985514;28;20030;-76
2022/08/06 03:27:07;;;;;;;2.83;1.67;;;11.80;97.30;;;;;;4977721;28;20132;-76
2022/08/06 03:29:33;;;;;;;3.30;1.88;;;11.80;97.60;;;;;;4999968;28;20116;-76
2022/08/06 03:31:59;;;;;;;3.42;1.55;;;11.80;97.30;;;;;;4980773;28;20044;-76
2022/08/06 03:34:25;;;;;;;5.72;2.30;;;11.70;97.40;;;;;;4980862;28;20485;-76
2022/08/06 03:36:51;;;;;;;4.05;1.73;;;11.70;98.30;;;;;;4980224;28;20025;-76
2022/08/06 03:39:16;;;;;;;3.88;1.40;;;12.00;98.10;;;;;;4991741;28;20448;-76
2022/08/06 03:41:42;;;;;;;2.67;1.60;;;12.00;98.00;;;;;;4989072;28;20202;-76
2022/08/06 03:44:07;;;;;;;6.53;1.90;;;11.70;98.20;;;;;;5004389;28;20106;-76
2022/08/06 03:46:51;;;;;;;4.45;1.92;;;11.60;98.10;;;;;;4973358;28;20038;-76
2022/08/06 03:49:25;;;;;;;3.92;2.20;;;11.60;99.00;;;;;;4996881;28;20396;-76
2022/08/06 03:51:52;;;;;;;5.80;2.30;;;11.40;99.90;;;;;;5015088;28;20042;-76
2022/08/06 03:54:22;;;;;;;3.20;2.03;;;11.30;99.90;;;;;;4995390;28;20065;-76
2022/08/06 03:56:48;;;;;;;3.97;1.88;;;11.20;99.50;;;;;;5008293;28;20134;-76
2022/08/06 03:59:13;;;;;;;3.38;1.80;;;11.30;99.70;;;;;;4999070;28;20564;-76
2022/08/06 04:01:41;;;;;;;4.45;1.95;;;11.40;99.00;;;;;;4995286;28;20450;-76
2022/08/06 04:04:06;;;;;;;3.83;1.33;;;11.30;99.10;;;;;;4991055;28;20111;-77
2022/08/06 04:06:32;;;;;;;3.25;2.28;;;11.30;98.30;;;;;;4999023;28;20081;-76
2022/08/06 04:08:57;;;;;;;3.22;2.33;;;11.10;99.40;;;;;;5006457;28;20141;-75
2022/08/06 04:11:23;;;;;;;2.92;1.92;;;11.00;99.90;;;;;;4985187;28;20044;-76
2022/08/06 04:13:49;;;;;;;2.92;1.92;;;11.00;99.40;;;;;;5007264;28;20022;-76
2022/08/06 04:16:14;;;;;;;4.40;2.25;;;11.10;98.90;;;;;;4976653;28;20129;-76
2022/08/06 04:18:40;;;;;;;2.28;1.58;;;11.20;98.90;;;;;;4962365;28;20474;-76
2022/08/06 04:21:09;;;;;;;5.22;2.22;;;11.40;99.20;;;;;;5005914;28;20037;-76
2022/08/06 04:23:37;;;;;;;4.53;1.90;;;11.50;98.70;;;;;;4958721;28;20042;-76
2022/08/06 04:26:03;;;;;;;6.75;1.88;;;11.40;98.50;;;;;;4999363;28;20029;-76
2022/08/06 04:28:29;;;;;;;4.95;2.10;;;11.20;99.20;;;;;;4996935;28;20057;-76
2022/08/06 04:30:54;;;;;;;10.00;2.83;;;11.20;99.00;;;;;;5006123;28;20115;-77
2022/08/06 04:33:22;;;;;;;4.90;2.15;;;11.10;99.50;;;;;;4988179;28;20369;-77
2022/08/06 04:35:47;;;;;;;5.82;2.90;;;11.00;99.90;;;;;;4985765;28;20102;-76
2022/08/06 04:38:14;;;;;;;3.47;2.80;;;11.00;99.90;;;;;;4994849;28;20038;-77
2022/08/06 04:40:40;;;;;;;4.38;3.10;;;11.10;99.90;;;;;;4998033;28;20034;-77
2022/08/06 04:43:06;;;;;;;7.63;3.60;;;11.10;99.90;;;;;;5001424;28;20512;-77
2022/08/06 04:45:32;;;;;;;5.43;3.22;;;11.20;99.90;;;;;;5006737;28;20037;-77
2022/08/06 04:47:58;;;;;;;7.30;3.72;;;11.20;99.90;;;;;;4995467;28;20327;-77
2022/08/06 04:50:23;;;;;;;6.82;3.58;;;11.30;99.50;;;;;;5000891;28;20034;-77
2022/08/06 04:52:49;;;;;;;3.42;1.80;;;11.40;99.90;;;;;;5001538;28;20429;-77
2022/08/06 04:55:18;;;;;;;5.70;1.95;;;11.70;99.20;;;;;;4986086;28;20021;-77
2022/08/06 04:57:43;;;;;;;4.55;2.95;;;12.00;98.80;;;;;;4996562;28;20121;-76
2022/08/06 05:00:09;;;;;;;4.88;2.30;;;11.90;98.80;;;;;;5010053;28;20156;-77
2022/08/06 05:02:35;;;;;;;8.00;2.95;;;11.90;98.60;;;;;;4992354;28;20042;-77
2022/08/06 05:05:00;;;;;;;4.75;2.70;;;12.00;99.60;;;;;;4977005;28;20030;-75
2022/08/06 05:07:28;;;;;;;2.50;2.30;;;12.00;99.30;;;;;;4976467;28;20040;-74
2022/08/06 05:09:58;;;;;;;8.63;2.28;;;12.20;98.60;;;;;;4988636;28;20033;-76
2022/08/06 05:12:26;;;;;;;3.90;2.55;;;12.30;99.10;;;;;;4978407;28;20041;-76
2022/08/06 05:15:01;;;;;;;4.32;3.00;;;12.50;99.80;;;;;;4979996;28;20490;-74
2022/08/06 05:17:30;;;;;;;7.45;2.90;;;12.50;99.30;;;;;;5015804;28;20045;-74
2022/08/06 05:20:16;;;;;;;6.82;2.85;;;12.60;99.90;;;;;;5009561;28;20755;-74
2022/08/06 05:22:43;;;;;;;4.22;2.60;;;12.80;99.90;;;;;;4981858;28;20045;-74
2022/08/06 05:25:09;;;;;;;4.55;2.45;;;12.90;99.90;;;;;;5003738;28;20037;-74
2022/08/06 05:27:34;;;;;;;4.80;2.55;;;13.00;99.90;;;;;;4998859;28;20033;-74
2022/08/06 05:30:01;;;;;;;7.30;3.20;;;13.20;99.90;;;;;;4993255;28;20569;-74
2022/08/06 05:32:27;;;;;;;5.60;2.47;;;13.40;99.90;;;;;;4992737;28;20034;-75
2022/08/06 05:34:52;;;;;;;3.80;2.60;;;13.50;99.50;;;;;;4998946;28;20141;-74
2022/08/06 05:37:18;;;;;;;3.28;2.50;;;13.60;99.90;;;;;;4975513;28;20034;-77
2022/08/06 05:39:43;;;;;;;4.93;2.40;;;13.80;99.60;;;;;;4984549;28;20482;-74
2022/08/06 05:42:09;;;;;;;4.68;1.27;;;14.00;99.90;;;;;;4991870;28;20031;-77
2022/08/06 05:44:34;;;;;;;1.55;1.10;;;14.10;97.00;;;;;;4989453;28;22796;-74
2022/08/06 05:47:05;;;;;;;3.13;1.40;;;14.30;96.50;;;;;;4987519;28;20134;-77
2022/08/06 05:49:44;;;;;;;5.68;2.42;;;14.50;97.20;;;;;;4992467;28;20599;-76
2022/08/06 05:52:22;;;;;;;5.32;2.35;;;14.70;97.80;;;;;;4967140;28;20057;-77
2022/08/06 05:54:58;;;;;;;4.85;2.13;;;14.80;98.80;;;;;;5006645;28;20030;-76
2022/08/06 05:57:46;;;;;;;3.30;2.07;;;15.00;99.20;;;;;;5000704;28;20469;-76
2022/08/06 06:00:15;;;;;;;5.97;2.38;;;15.10;99.50;;;;;;5003942;28;20558;-76
2022/08/06 06:02:44;;;;;;;3.25;2.20;;;15.30;99.50;;;;;;4975130;28;20041;-77
2022/08/06 06:05:10;;;;;;;3.25;2.13;;;15.50;99.70;;;;;;4976990;28;20677;-77
2022/08/06 06:07:35;;;;;;;5.05;2.20;;;15.70;99.60;;;;;;5010215;28;20041;-77
2022/08/06 06:10:02;;;;;;;7.00;2.50;;;15.80;99.20;;;;;;4972706;28;20401;-77
2022/08/06 06:12:29;;;;;;;4.63;2.35;;;16.00;99.60;;;;;;4967586;28;20043;-76
2022/08/06 06:14:54;;;;;;;8.88;2.80;;;16.20;99.50;;;;;;4997492;28;20045;-77
2022/08/06 06:17:57;;;;;;;4.95;2.10;;;16.40;99.90;;;;;;4994652;28;20120;-76
2022/08/06 06:20:35;;;;;;;6.35;3.10;;;16.60;99.90;;;;;;5006471;28;20033;-77
2022/08/06 06:23:17;;;;;;;6.63;2.50;;;16.80;99.90;;;;;;5009037;28;20053;-75
2022/08/06 06:25:44;;;;;;;17.35;2.95;;;17.00;99.90;;;;;;4991358;28;20037;-77
2022/08/06 06:28:33;;;;;;;9.43;2.55;;;17.20;99.90;;;;;;4993937;28;20030;-75
2022/08/06 06:31:18;;;;;;;4.55;2.03;;;17.30;99.90;;;;;;4984428;28;20074;-77
2022/08/06 06:34:07;;;;;;;4.93;2.25;;;17.60;99.90;;;;;;4991757;28;20042;-77
2022/08/06 06:36:50;;;;;;;5.40;1.88;;;17.90;99.90;;;;;;5005683;28;20034;-76
2022/08/06 06:39:59;;;;;;;3.15;1.73;;;18.00;99.80;;;;;;5010655;28;20064;-77
2022/08/06 06:42:28;;;;;;;4.82;1.88;;;18.20;99.60;;;;;;4954829;28;20038;-76
2022/08/06 06:45:13;;;;;;;4.18;1.73;;;18.30;99.50;;;;;;4987106;28;20088;-76
2022/08/06 06:48:02;;;;;;;4.88;1.83;;;18.50;99.70;;;;;;4973381;28;20041;-76
2022/08/06 06:50:30;;;;;;;5.00;1.60;;;18.80;99.10;;;;;;4991371;28;20088;-77
2022/08/06 06:52:55;;;;;;;4.72;1.77;;;18.80;98.90;;;;;;4999735;28;20044;-77
2022/08/06 06:55:29;;;;;;;5.90;1.98;;;18.90;99.10;;;;;;4984070;28;20471;-76
2022/08/06 06:57:58;;;;;;;7.15;1.58;;;19.00;98.80;;;;;;4981296;28;20302;-76
2022/08/06 07:00:23;;;;;;;3.60;1.73;;;19.20;98.30;;;;;;4979925;28;20633;-76
2022/08/06 07:02:49;;;;;;;3.80;1.30;;;19.30;98.00;;;;;;4998953;28;20026;-76
2022/08/06 07:05:15;;;;;;;4.03;1.40;;;19.60;97.50;;;;;;4999828;28;20054;-78
2022/08/06 07:07:41;;;;;;;3.13;1.08;;;19.80;97.50;;;;;;5003786;28;20022;-76
2022/08/06 07:10:09;;;;;;;3.22;1.10;;;19.90;96.40;;;;;;4967643;28;20103;-77
2022/08/06 07:12:35;;;;;;;3.22;1.05;;;19.90;96.80;;;;;;5005017;28;20026;-76
2022/08/06 07:15:02;;;;;;;4.75;1.33;;;20.10;96.40;;;;;;4986411;28;20037;-76
2022/08/06 07:17:31;;;;;;;3.50;0.90;;;20.20;96.20;;;;;;4997733;28;20100;-76
2022/08/06 07:19:59;;;;;;;2.58;0.60;;;20.30;95.80;;;;;;4987136;28;20037;-76
2022/08/06 07:22:25;;;;;;;6.03;1.65;;;20.50;95.70;;;;;;4971210;28;20027;-76
2022/08/06 07:24:51;;;;;;;4.03;1.05;;;20.50;94.30;;;;;;5001419;28;20503;-76
2022/08/06 07:27:17;;;;;;;10.70;1.02;;;20.70;95.10;;;;;;5007102;28;20496;-76
2022/08/06 07:29:42;;;;;;;2.55;0.70;;;20.80;94.60;;;;;;4995451;28;20133;-77
2022/08/06 07:32:08;;;;;;;4.72;1.00;;;20.90;93.90;;;;;;4978646;28;20088;-76
2022/08/06 07:34:33;;;;;;;10.95;1.25;;;21.00;93.80;;;;;;5006851;28;20390;-76
2022/08/06 07:36:59;;;;;;;2.47;0.77;;;21.20;94.00;;;;;;5005831;28;20042;-77
2022/08/06 07:39:27;;;;;;;5.60;1.13;;;21.30;93.90;;;;;;4978659;28;20053;-77
2022/08/06 07:41:53;;;;;;;5.72;1.25;;;21.40;92.90;;;;;;4986832;28;20293;-78
2022/08/06 07:44:21;;;;;;;4.70;1.40;;;21.40;91.90;;;;;;4979434;28;20097;-77
2022/08/06 07:46:49;;;;;;;2.00;0.70;;;21.60;91.80;;;;;;4990442;28;20062;-77
2022/08/06 07:49:15;;;;;;;3.28;0.73;;;21.70;91.70;;;;;;4974006;28;20022;-77
2022/08/06 07:51:42;;;;;;;2.67;0.80;;;21.70;91.50;;;;;;4988923;28;20034;-77
2022/08/06 07:54:08;;;;;;;4.90;1.00;;;21.80;89.80;;;;;;4985564;28;20571;-77
2022/08/06 07:56:35;;;;;;;2.80;1.40;;;21.80;90.30;;;;;;4999221;28;20042;-77
2022/08/06 07:59:01;;;;;;;5.68;1.10;;;22.20;88.70;;;;;;4991159;28;20031;-77
2022/08/06 08:01:26;;;;;;;2.65;0.70;;;22.10;87.70;;;;;;4976012;28;20478;-77
2022/08/06 08:06:36;;;;;;;2.00;0.90;;;22.20;85.20;;;;;;5007001;28;20044;-77
2022/08/06 08:09:03;;;;;;;2.22;0.65;;;22.30;84.30;;;;;;4978964;28;20042;-78
2022/08/06 08:11:29;;;;;;;1.63;0.50;;;22.50;84.40;;;;;;5023303;28;20069;-79
2022/08/06 08:13:55;;;;;;;1.00;0.50;;;22.50;83.20;;;;;;5010046;28;20053;-78
2022/08/06 08:16:20;;;;;;;1.42;0.47;;;22.60;83.00;;;;;;4999811;28;20484;-78
2022/08/06 08:18:46;;;;;;;3.22;0.60;;;22.60;83.00;;;;;;4999324;28;20120;-78
2022/08/06 08:21:11;;;;;;;1.85;0.50;;;22.70;81.60;;;;;;4978598;28;20053;-78
2022/08/06 08:23:38;;;;;;;3.50;0.57;;;22.90;80.70;;;;;;4999259;28;20052;-78
2022/08/06 08:26:04;;;;;;;1.90;0.35;;;23.00;77.90;;;;;;5007799;28;20033;-78
2022/08/06 08:28:30;;;;;;;0.50;0.20;;;23.10;76.60;;;;;;4978268;28;20398;-78
2022/08/06 08:30:58;;;;;;;1.50;0.40;;;23.10;77.40;;;;;;4994064;28;20058;-78
2022/08/06 08:33:24;;;;;;;1.63;0.60;;;23.30;77.20;;;;;;4975214;28;20035;-77
2022/08/06 08:35:50;;;;;;;1.65;0.30;;;23.30;70.00;;;;;;5003273;28;20049;-78
2022/08/06 08:38:15;;;;;;;1.00;0.43;;;23.30;71.10;;;;;;4997625;28;20030;-78
2022/08/06 08:40:42;;;;;;;2.60;0.52;;;23.40;71.70;;;;;;5020947;28;20057;-78
2022/08/06 08:43:07;;;;;;;0.88;0.57;;;23.60;69.60;;;;;;5002972;28;20030;-78
2022/08/06 08:45:34;;;;;;;2.42;0.40;;;23.40;70.20;;;;;;4987051;28;20034;-78
2022/08/06 08:48:00;;;;;;;1.27;0.30;;;23.50;70.70;;;;;;5006635;28;20033;-78
2022/08/06 08:50:28;;;;;;;0.85;0.40;;;23.50;71.20;;;;;;4975677;28;20084;-77
2022/08/06 08:53:09;;;;;;;0.60;0.30;;;23.50;70.60;;;;;;4972918;28;20042;-78
2022/08/06 08:55:34;;;;;;;2.45;0.52;;;23.60;72.60;;;;;;4973743;28;20043;-78
2022/08/06 08:58:00;;;;;;;0.75;0.43;;;23.70;69.70;;;;;;4980464;28;20023;-78
2022/08/06 09:00:26;;;;;;;1.95;0.57;;;24.10;65.50;;;;;;4957093;28;20065;-78
2022/08/06 09:02:52;;;;;;;1.48;0.40;;;23.90;64.30;;;;;;5013713;28;20462;-78
2022/08/06 09:05:17;;;;;;;0.57;0.28;;;23.90;65.70;;;;;;4958843;28;20129;-78
2022/08/06 09:07:43;;;;;;;0.73;0.30;;;24.10;63.50;;;;;;4970396;28;20090;-78
2022/08/06 09:10:09;;;;;;;0.55;0.25;;;24.10;65.20;;;;;;4974352;28;20054;-79
2022/08/06 09:12:35;;;;;;;2.05;0.45;;;24.20;65.40;;;;;;5005614;28;20528;-78
2022/08/06 09:15:01;;;;;;;0.50;0.38;;;24.20;65.90;;;;;;5000701;28;20033;-78
2022/08/06 09:17:28;;;;;;;1.63;0.30;;;24.40;65.40;;;;;;4996146;28;20053;-78
2022/08/06 09:19:53;;;;;;;1.00;0.40;;;24.30;61.40;;;;;;4966114;28;20169;-79
2022/08/06 09:22:19;;;;;;;0.77;0.30;;;24.50;63.20;;;;;;4981414;28;20106;-79
2022/08/06 09:24:44;;;;;;;2.08;0.40;;;24.60;63.40;;;;;;4998597;28;20029;-78
2022/08/06 09:27:12;;;;;;;1.70;0.40;;;24.70;62.50;;;;;;4995188;28;20041;-78
2022/08/06 09:29:51;;;;;;;0.65;0.35;;;24.80;61.00;;;;;;4996019;28;20174;-78
2022/08/06 09:32:38;;;;;;;0.63;0.32;;;24.90;60.40;;;;;;4969205;28;20454;-78
2022/08/06 09:35:16;;;;;;;1.55;0.45;;;24.80;59.00;;;;;;5002404;28;20025;-78
2022/08/06 09:37:41;;;;;;;0.20;0.20;;;25.10;59.70;;;;;;4999925;28;20042;-75
2022/08/06 09:40:15;;;;;;;1.13;0.20;;;25.30;60.10;;;;;;4964977;28;20038;-77
2022/08/06 09:42:46;;;;;;;0.70;0.30;;;25.30;59.90;;;;;;5001882;28;20434;-76
2022/08/06 09:45:13;;;;;;;3.63;0.70;;;25.60;60.20;;;;;;5008683;28;20031;-76
2022/08/06 09:47:39;;;;;;;2.05;0.50;;;25.50;59.30;;;;;;4982592;28;20530;-76
2022/08/06 09:50:05;;;;;;;0.52;0.30;;;25.60;61.40;;;;;;4967242;28;20065;-77
2022/08/06 09:52:30;;;;;;;1.77;0.30;;;25.70;59.80;;;;;;4966489;28;20286;-76
2022/08/06 09:54:56;;;;;;;0.17;0.10;;;25.80;57.90;;;;;;4999004;28;20114;-80
2022/08/06 09:57:25;;;;;;;0.55;0.38;;;26.00;55.20;;;;;;4996446;28;20037;-76
2022/08/06 09:59:51;;;;;;;0.32;0.20;;;26.30;55.40;;;;;;4989517;28;20030;-76
2022/08/06 10:02:18;;;;;;;1.10;0.38;;;26.20;56.60;;;;;;5016397;28;20089;-77
2022/08/06 10:04:44;;;;;;;1.52;0.65;;;26.40;57.10;;;;;;5001154;28;20173;-77
2022/08/06 10:07:10;;;;;;;1.27;0.20;;;26.60;57.50;;;;;;4992841;28;20398;-77
2022/08/06 10:09:37;;;;;;;1.23;0.30;;;26.80;56.60;;;;;;4993622;28;20042;-79
2022/08/06 10:12:16;;;;;;;0.82;0.30;;;27.00;56.70;;;;;;5000356;28;20038;-79
2022/08/06 10:14:41;;;;;;;1.23;0.50;;;27.20;55.40;;;;;;4994839;28;20384;-79
2022/08/06 10:17:17;;;;;;;2.00;0.47;;;27.40;50.40;;;;;;5009699;28;20480;-79
2022/08/06 10:19:44;;;;;;;1.13;0.30;;;27.40;50.80;;;;;;5006566;28;20147;-80
2022/08/06 10:22:12;;;;;;;0.65;0.40;;;27.00;53.20;;;;;;5004109;28;20486;-79
2022/08/06 10:24:40;;;;;;;1.38;0.25;;;26.90;52.50;;;;;;5011105;28;20045;-79
2022/08/06 10:27:07;;;;;;;1.05;0.30;;;26.90;51.70;;;;;;5016888;28;20026;-79
2022/08/06 10:29:34;;;;;;;2.08;0.20;;;27.10;49.50;;;;;;4975193;28;20490;-79
2022/08/06 10:32:00;;;;;;;0.65;0.20;;;26.90;49.70;;;;;;5009003;28;20029;-79
2022/08/06 10:34:27;;;;;;;1.75;0.57;;;26.80;51.40;;;;;;5015448;28;20033;-79
2022/08/06 10:36:58;;;;;;;1.20;0.40;;;26.90;52.60;;;;;;5007469;28;20097;-80
2022/08/06 10:39:27;;;;;;;0.55;0.30;;;27.20;52.50;;;;;;5018023;28;20038;-80
2022/08/06 10:41:54;;;;;;;1.42;0.60;;;27.50;53.20;;;;;;5005678;28;20032;-80
2022/08/06 10:44:19;;;;;;;0.90;0.60;;;27.60;52.20;;;;;;5006435;28;20112;-80
2022/08/06 10:46:45;;;;;;;1.40;0.45;;;27.70;52.60;;;;;;4982446;28;20113;-80
2022/08/06 10:49:11;;;;;;;1.70;0.60;;;27.60;50.80;;;;;;5014068;28;20116;-80
2022/08/06 10:51:37;;;;;;;2.92;0.50;;;27.50;50.30;;;;;;4990316;28;20396;-80
2022/08/06 10:54:02;;;;;;;2.80;0.63;;;27.20;48.80;;;;;;4995721;28;20038;-80
2022/08/06 10:56:28;;;;;;;2.08;0.80;;;26.80;50.30;;;;;;4977215;28;20050;-80
2022/08/06 10:58:55;;;;;;;0.63;0.35;;;26.60;50.70;;;;;;5001542;28;20479;-80
2022/08/06 11:01:28;;;;;;;1.85;0.47;;;26.70;52.40;;;;;;4977307;28;20042;-80
2022/08/06 11:04:32;;;;;;;1.33;0.50;;;26.90;52.10;;;;;;5007051;28;20505;-80
2022/08/06 11:07:16;;;;;;;2.05;0.40;;;27.10;52.00;;;;;;5012748;28;20425;-81
2022/08/06 11:10:05;;;;;;;1.13;0.32;;;27.30;53.90;;;;;;4995064;28;20047;-81
2022/08/06 11:12:52;;;;;;;1.20;0.40;;;27.80;53.20;;;;;;4982148;28;20061;-81
2022/08/06 11:15:18;;;;;;;1.42;0.45;;;28.10;53.30;;;;;;5014070;28;20560;-82
2022/08/06 11:17:51;;;;;;;1.73;0.63;;;28.50;52.70;;;;;;4984675;28;20046;-82
2022/08/06 11:20:32;;;;;;;0.73;0.30;;;28.70;49.60;;;;;;4997964;28;20745;-82
2022/08/06 11:23:01;;;;;;;1.20;0.40;;;28.90;48.90;;;;;;5004735;28;20490;-83
2022/08/06 11:25:42;;;;;;;1.42;0.40;;;29.00;47.60;;;;;;4995356;28;20438;-83
2022/08/06 11:28:12;;;;;;;1.52;0.40;;;29.10;49.40;;;;;;5000697;28;20401;-81
2022/08/06 11:30:51;;;;;;;0.40;0.30;;;29.10;48.20;;;;;;4305807;28;9999861;-83
2022/08/06 11:33:21;;;;;;;1.00;0.40;;;29.00;50.80;;;;;;5001245;28;20514;-82
2022/08/06 11:35:48;;;;;;;1.80;0.40;;;29.00;49.40;;;;;;5005228;28;20100;-82
2022/08/06 11:38:36;;;;;;;0.98;0.30;;;29.20;48.20;;;;;;4993423;28;20779;-82
2022/08/06 11:41:07;;;;;;;0.90;0.47;;;29.30;48.50;;;;;;5005212;28;20386;-82
2022/08/06 11:43:46;;;;;;;3.88;0.47;;;29.50;49.30;;;;;;5007686;28;20033;-82
2022/08/06 11:46:17;;;;;;;2.15;0.50;;;29.70;48.90;;;;;;5006797;28;20038;-82
2022/08/06 11:49:06;;;;;;;0.93;0.30;;;29.60;47.50;;;;;;5005803;28;20057;-82
2022/08/06 11:51:37;;;;;;;1.50;0.30;;;29.70;47.00;;;;;;5005423;28;20192;-82
2022/08/06 11:54:20;;;;;;;0.70;0.45;;;29.30;45.80;;;;;;5020432;28;20041;-82
2022/08/06 11:57:06;;;;;;;1.20;0.40;;;29.20;45.00;;;;;;5001602;28;20156;-82
2022/08/06 11:59:49;;;;;;;1.65;0.30;;;29.20;47.30;;;;;;5022969;28;20057;-81
2022/08/06 12:02:17;;;;;;;1.98;0.32;;;29.30;46.50;;;;;;5011554;28;20033;-82
2022/08/06 12:04:44;;;;;;;1.95;0.38;;;29.50;47.90;;;;;;5010542;28;20050;-82
2022/08/06 12:07:18;;;;;;;1.20;0.30;;;29.80;47.50;;;;;;5011459;28;20034;-81
2022/08/06 12:09:45;;;;;;;1.27;0.70;;;30.00;46.10;;;;;;5010147;28;20041;-80
2022/08/06 12:12:28;;;;;;;1.70;0.70;;;30.10;44.50;;;;;;5025857;28;20180;-80
2022/08/06 12:15:00;;;;;;;2.58;0.68;;;29.90;46.00;;;;;;5003213;28;20505;-80
2022/08/06 12:17:27;;;;;;;3.75;0.60;;;29.80;45.60;;;;;;4998606;28;20140;-80
2022/08/06 12:19:53;;;;;;;1.63;0.50;;;29.70;44.80;;;;;;5008189;28;20026;-80
2022/08/06 12:22:20;;;;;;;0.60;0.45;;;29.50;44.30;;;;;;5008613;28;20026;-80
2022/08/06 12:24:48;;;;;;;1.52;0.50;;;29.40;44.20;;;;;;5025771;28;20040;-81
2022/08/06 12:27:14;;;;;;;0.65;0.32;;;29.40;45.90;;;;;;5006174;28;20129;-81
2022/08/06 12:29:40;;;;;;;2.38;0.68;;;29.70;46.00;;;;;;4979491;28;20038;-81
2022/08/06 12:32:25;;;;;;;0.40;0.30;;;29.80;47.30;;;;;;5014795;28;20387;-80
2022/08/06 12:34:51;;;;;;;0.70;0.30;;;30.00;47.90;;;;;;5013704;28;20105;-80
2022/08/06 12:37:17;;;;;;;0.85;0.30;;;30.30;46.10;;;;;;5010390;28;20533;-80
2022/08/06 12:42:28;;;;;;;1.67;0.40;;;30.90;45.80;;;;;;5008499;28;20060;-78
2022/08/06 12:44:53;;;;;;;0.50;0.40;;;31.30;41.90;;;;;;5007831;28;20026;-77
2022/08/06 12:47:19;;;;;;;1.80;0.40;;;31.40;41.50;;;;;;4992810;28;20030;-77
2022/08/06 12:49:45;;;;;;;3.35;0.50;;;31.40;42.70;;;;;;4992863;28;20124;-77
2022/08/06 12:52:16;;;;;;;1.77;0.35;;;31.30;42.10;;;;;;5007839;28;20556;-77
2022/08/06 12:54:42;;;;;;;0.30;0.30;;;31.30;42.40;;;;;;5005703;28;20514;-77
2022/08/06 12:57:08;;;;;;;1.52;0.30;;;31.20;42.70;;;;;;5005150;28;20156;-78
2022/08/06 12:59:34;;;;;;;3.50;0.55;;;31.20;44.40;;;;;;5006138;28;20179;-77
2022/08/06 13:01:59;;;;;;;1.90;0.77;;;31.20;43.00;;;;;;5006564;28;20040;-78